Weldon, California
Current Conditions -  °F | °C
As of 8:56 AM on Thursday 23 Oct 2014 (Local Time) from KNID Reporting Station
Few Clouds Few Clouds  
Wind Chill: 60°   Ceiling: Unl
Heat Index: 60°   Visibility: 10mi
Dew Point: 28°   Wind: 0mph
Humidity: 30%   Direction: NA
Pressure: 30.08"   Gusts: NA
Location:  35.67°N, 118.29°W
Report Text: KNID 231556Z 00000KT 10SM FEW250 16/M02 A3008 RMK AO2 SLP179 T01561022 $
Loading
Personal Weather Stations






























Interactive Weather Map
Tropical Storm Tracking
New forecast layout! Learn more

10-Day Weather Forecast

Advertisements
Track Severe Weather on mobile